createdAt,value
2022-08-28T00:00:49.063Z,998.86
2022-08-28T00:01:49.099Z,998.84
2022-08-28T00:02:49.105Z,998.82
2022-08-28T00:03:49.029Z,998.81
2022-08-28T00:04:49.103Z,998.80
2022-08-28T00:05:49.008Z,998.79
2022-08-28T00:06:48.885Z,998.79
2022-08-28T00:07:49.009Z,998.79
2022-08-28T00:08:48.907Z,998.80
2022-08-28T00:09:48.911Z,998.82
2022-08-28T00:10:48.903Z,998.84
2022-08-28T00:11:48.904Z,998.86
2022-08-28T00:12:48.877Z,998.88
2022-08-28T00:13:48.901Z,998.89
2022-08-28T00:14:48.820Z,998.90
2022-08-28T00:15:48.892Z,998.92
2022-08-28T00:16:48.782Z,998.93
2022-08-28T00:17:48.844Z,998.94
2022-08-28T00:18:48.733Z,998.94
2022-08-28T00:19:48.720Z,998.95
2022-08-28T00:20:48.740Z,998.95
2022-08-28T00:21:48.690Z,998.96
2022-08-28T00:22:48.753Z,998.95
2022-08-28T00:23:48.660Z,998.95
2022-08-28T00:24:48.626Z,998.95
2022-08-28T00:25:48.626Z,998.95
2022-08-28T00:26:48.613Z,998.95
2022-08-28T00:27:48.590Z,998.95
2022-08-28T00:28:48.593Z,998.96
2022-08-28T00:29:48.582Z,998.97
2022-08-28T00:30:48.518Z,998.97
2022-08-28T00:31:48.516Z,998.98
2022-08-28T00:32:48.501Z,998.97
2022-08-28T00:33:53.507Z,998.96
2022-08-28T00:34:48.437Z,998.96
2022-08-28T00:35:48.428Z,998.97
2022-08-28T00:36:48.411Z,998.97
2022-08-28T00:37:48.398Z,998.98
2022-08-28T00:38:48.474Z,998.98
2022-08-28T00:39:48.346Z,999.00
2022-08-28T00:40:48.367Z,999.01
2022-08-28T00:41:48.312Z,999.02
2022-08-28T00:42:48.294Z,999.03
2022-08-28T00:43:48.279Z,999.04
2022-08-28T00:44:48.323Z,999.04
2022-08-28T00:45:48.223Z,999.04
2022-08-28T00:46:48.271Z,999.04
2022-08-28T00:47:48.262Z,999.04
2022-08-28T00:48:48.213Z,999.04
2022-08-28T00:49:48.199Z,999.04
2022-08-28T00:50:48.133Z,999.03
2022-08-28T00:51:48.129Z,999.03
2022-08-28T00:52:48.114Z,999.04
2022-08-28T00:53:48.083Z,999.03
2022-08-28T00:54:59.476Z,999.03
2022-08-28T00:55:49.068Z,999.03
2022-08-28T00:56:48.084Z,999.03
2022-08-28T00:57:48.020Z,999.02
2022-08-28T00:58:48.004Z,999.01
2022-08-28T00:59:47.973Z,999.00
2022-08-28T01:00:47.992Z,998.99
2022-08-28T01:01:48.012Z,998.98
2022-08-28T01:02:47.960Z,998.98
2022-08-28T01:03:47.921Z,998.96
2022-08-28T01:04:47.866Z,998.97
2022-08-28T01:05:47.999Z,998.96
2022-08-28T01:06:47.738Z,998.96
2022-08-28T01:07:47.852Z,998.96
2022-08-28T01:08:49.836Z,998.97
2022-08-28T01:09:47.796Z,998.96
2022-08-28T01:10:47.812Z,998.96
2022-08-28T01:11:47.852Z,998.96
2022-08-28T01:12:47.746Z,998.96
2022-08-28T01:13:47.731Z,998.96
2022-08-28T01:14:47.782Z,998.97
2022-08-28T01:15:47.917Z,998.95
2022-08-28T01:16:47.669Z,998.96
2022-08-28T01:17:47.648Z,998.96
2022-08-28T01:18:47.608Z,998.97
2022-08-28T01:19:47.609Z,998.98
2022-08-28T01:20:47.616Z,999.00
2022-08-28T01:21:47.685Z,998.99
2022-08-28T01:22:47.555Z,998.99
2022-08-28T01:23:47.548Z,998.99
2022-08-28T01:24:47.536Z,998.98
2022-08-28T01:25:47.481Z,998.99
2022-08-28T01:26:47.509Z,999.00
2022-08-28T01:27:47.484Z,999.00
2022-08-28T01:28:47.416Z,998.99
2022-08-28T01:29:48.031Z,998.99
2022-08-28T01:30:47.450Z,998.99
2022-08-28T01:31:47.517Z,999.00
2022-08-28T01:32:47.344Z,998.99
2022-08-28T01:33:47.336Z,998.98
2022-08-28T01:34:47.322Z,998.98
2022-08-28T01:35:47.323Z,998.97
2022-08-28T01:36:47.357Z,998.97
2022-08-28T01:37:47.278Z,998.96
2022-08-28T01:38:47.252Z,998.96
2022-08-28T01:39:47.304Z,998.96
2022-08-28T01:40:47.215Z,998.95
2022-08-28T01:41:47.208Z,998.94
2022-08-28T01:42:47.193Z,998.95
2022-08-28T01:43:47.165Z,998.94
2022-08-28T01:44:47.163Z,998.94
2022-08-28T01:45:47.122Z,998.93
2022-08-28T01:46:47.181Z,998.93
2022-08-28T01:47:47.118Z,998.91
2022-08-28T01:48:47.096Z,998.92
2022-08-28T01:49:47.052Z,998.92
2022-08-28T01:50:47.008Z,998.93
2022-08-28T01:51:47.033Z,998.92
2022-08-28T01:52:47.046Z,998.94
2022-08-28T01:53:46.996Z,998.94
2022-08-28T01:54:46.966Z,998.94
2022-08-28T01:55:46.974Z,998.95
2022-08-28T01:56:46.985Z,998.95
2022-08-28T01:57:46.970Z,998.95
2022-08-28T01:58:46.912Z,998.95
2022-08-28T01:59:46.893Z,998.94
2022-08-28T02:00:46.861Z,998.93
2022-08-28T02:01:46.923Z,998.92
2022-08-28T02:02:46.811Z,998.91
2022-08-28T02:03:46.859Z,998.91
2022-08-28T02:04:48.346Z,998.92
2022-08-28T02:05:46.777Z,998.93
2022-08-28T02:06:46.681Z,998.94
2022-08-28T02:07:46.736Z,998.95
2022-08-28T02:08:46.740Z,998.97
2022-08-28T02:09:46.688Z,998.96
2022-08-28T02:10:46.686Z,998.96
2022-08-28T02:11:47.000Z,998.96
2022-08-28T02:12:46.649Z,998.94
2022-08-28T02:13:50.737Z,998.96
2022-08-28T02:14:46.590Z,998.96
2022-08-28T02:15:46.726Z,998.96
2022-08-28T02:16:46.604Z,998.98
2022-08-28T02:17:46.541Z,998.98
2022-08-28T02:18:46.579Z,998.99
2022-08-28T02:19:46.527Z,998.99
2022-08-28T02:20:46.493Z,999.01
2022-08-28T02:21:46.468Z,999.00
2022-08-28T02:22:46.542Z,999.00
2022-08-28T02:23:46.424Z,999.00
2022-08-28T02:24:46.461Z,998.99
2022-08-28T02:25:46.379Z,998.99
2022-08-28T02:26:46.348Z,999.01
2022-08-28T02:27:46.335Z,999.03
2022-08-28T02:28:46.343Z,999.04
2022-08-28T02:29:46.332Z,999.05
2022-08-28T02:30:46.337Z,999.05
2022-08-28T02:31:46.293Z,999.05
2022-08-28T02:32:46.269Z,999.06
2022-08-28T02:33:46.227Z,999.06
2022-08-28T02:34:46.245Z,999.08
2022-08-28T02:35:46.184Z,999.06
2022-08-28T02:36:46.195Z,999.07
2022-08-28T02:37:47.766Z,999.06
2022-08-28T02:38:46.152Z,999.04
2022-08-28T02:39:46.177Z,999.03
2022-08-28T02:40:46.162Z,999.02
2022-08-28T02:41:46.094Z,999.01
2022-08-28T02:42:46.052Z,999.01
2022-08-28T02:43:46.069Z,999.01
2022-08-28T02:44:45.981Z,999.02
2022-08-28T02:45:45.982Z,999.01
2022-08-28T02:46:46.009Z,999.01
2022-08-28T02:47:45.966Z,999.02
2022-08-28T02:48:45.936Z,999.00
2022-08-28T02:49:46.020Z,999.02
2022-08-28T02:50:45.976Z,999.02
2022-08-28T02:51:45.911Z,999.02
2022-08-28T02:52:45.860Z,999.03
2022-08-28T02:53:45.844Z,999.05
2022-08-28T02:54:45.811Z,999.04
2022-08-28T02:55:45.811Z,999.06
2022-08-28T02:56:45.854Z,999.06
2022-08-28T02:57:45.794Z,999.08
2022-08-28T02:58:45.818Z,999.09
2022-08-28T02:59:45.847Z,999.10
2022-08-28T03:00:45.729Z,999.10
2022-08-28T03:01:45.726Z,999.11
2022-08-28T03:02:45.795Z,999.13
2022-08-28T03:03:45.673Z,999.14
2022-08-28T03:04:45.680Z,999.15
2022-08-28T03:05:45.672Z,999.16
2022-08-28T03:06:45.551Z,999.17
2022-08-28T03:07:45.642Z,999.17
2022-08-28T03:08:45.588Z,999.17
2022-08-28T03:09:46.134Z,999.16
2022-08-28T03:10:45.528Z,999.15
2022-08-28T03:11:45.536Z,999.15
2022-08-28T03:12:45.573Z,999.16
2022-08-28T03:13:45.501Z,999.16
2022-08-28T03:14:45.528Z,999.17
2022-08-28T03:15:45.437Z,999.17
2022-08-28T03:16:45.496Z,999.18
2022-08-28T03:17:45.484Z,999.16
2022-08-28T03:18:45.432Z,999.18
2022-08-28T03:19:45.371Z,999.18
2022-08-28T03:20:45.348Z,999.18
2022-08-28T03:21:45.357Z,999.17
2022-08-28T03:22:46.192Z,999.17
2022-08-28T03:23:45.338Z,999.19
2022-08-28T03:24:45.276Z,999.18
2022-08-28T03:25:45.248Z,999.19
2022-08-28T03:26:45.239Z,999.18
2022-08-28T03:27:45.218Z,999.17
2022-08-28T03:28:45.242Z,999.16
2022-08-28T03:29:45.174Z,999.17
2022-08-28T03:30:45.176Z,999.16
2022-08-28T03:31:45.144Z,999.17
2022-08-28T03:32:45.187Z,999.18
2022-08-28T03:33:45.152Z,999.19
2022-08-28T03:34:45.083Z,999.19
2022-08-28T03:35:45.074Z,999.19
2022-08-28T03:36:45.040Z,999.18
2022-08-28T03:37:45.028Z,999.19
2022-08-28T03:38:45.091Z,999.20
2022-08-28T03:39:45.014Z,999.21
2022-08-28T03:40:44.957Z,999.21
2022-08-28T03:41:45.016Z,999.22
2022-08-28T03:42:46.960Z,999.24
2022-08-28T03:43:46.031Z,999.26
2022-08-28T03:44:44.911Z,999.27
2022-08-28T03:45:44.955Z,999.28
2022-08-28T03:46:44.892Z,999.27
2022-08-28T03:47:44.841Z,999.30
2022-08-28T03:48:45.055Z,999.28
2022-08-28T03:49:44.863Z,999.30
2022-08-28T03:50:44.859Z,999.32
2022-08-28T03:51:44.783Z,999.31
2022-08-28T03:52:44.760Z,999.31
2022-08-28T03:53:44.775Z,999.31
2022-08-28T03:54:44.809Z,999.32
2022-08-28T03:55:44.732Z,999.34
2022-08-28T03:56:44.704Z,999.35
2022-08-28T03:57:44.712Z,999.36
2022-08-28T03:58:44.663Z,999.37
2022-08-28T03:59:44.693Z,999.36
2022-08-28T04:00:44.628Z,999.37
2022-08-28T04:01:44.633Z,999.38
2022-08-28T04:02:44.556Z,999.37
2022-08-28T04:03:44.699Z,999.38
2022-08-28T04:04:44.551Z,999.38
2022-08-28T04:05:44.594Z,999.38
2022-08-28T04:06:44.446Z,999.37
2022-08-28T04:07:44.485Z,999.35
2022-08-28T04:08:44.481Z,999.35
2022-08-28T04:09:44.474Z,999.33
2022-08-28T04:10:44.501Z,999.32
2022-08-28T04:11:44.464Z,999.32
2022-08-28T04:12:44.452Z,999.32
2022-08-28T04:13:44.377Z,999.32
2022-08-28T04:14:44.397Z,999.32
2022-08-28T04:15:44.447Z,999.32
2022-08-28T04:16:44.375Z,999.32
2022-08-28T04:17:44.309Z,999.32
2022-08-28T04:18:44.296Z,999.33
2022-08-28T04:19:44.247Z,999.32
2022-08-28T04:20:46.542Z,999.32
2022-08-28T04:21:44.265Z,999.33
2022-08-28T04:22:44.277Z,999.34
2022-08-28T04:23:44.204Z,999.35
2022-08-28T04:24:44.260Z,999.36
2022-08-28T04:25:44.200Z,999.38
2022-08-28T04:26:44.190Z,999.38
2022-08-28T04:27:44.121Z,999.39
2022-08-28T04:28:44.125Z,999.39
2022-08-28T04:29:44.093Z,999.39
2022-08-28T04:30:44.044Z,999.39
2022-08-28T04:31:44.157Z,999.41
2022-08-28T04:32:44.032Z,999.39
2022-08-28T04:33:44.077Z,999.39
2022-08-28T04:34:44.024Z,999.39
2022-08-28T04:35:43.945Z,999.40
2022-08-28T04:36:43.958Z,999.39
2022-08-28T04:37:44.009Z,999.41
2022-08-28T04:38:44.338Z,999.40
2022-08-28T04:39:43.937Z,999.40
2022-08-28T04:40:43.904Z,999.41
2022-08-28T04:41:43.889Z,999.40
2022-08-28T04:42:43.955Z,999.42
2022-08-28T04:43:43.821Z,999.42
2022-08-28T04:44:43.811Z,999.43
2022-08-28T04:45:43.824Z,999.43
2022-08-28T04:46:43.773Z,999.44
2022-08-28T04:47:43.782Z,999.46
2022-08-28T04:48:43.724Z,999.47
2022-08-28T04:49:43.766Z,999.48
2022-08-28T04:50:43.612Z,999.48
2022-08-28T04:51:43.716Z,999.50
2022-08-28T04:52:43.638Z,999.53
2022-08-28T04:53:43.686Z,999.55
2022-08-28T04:54:43.606Z,999.56
2022-08-28T04:55:54.944Z,999.55
2022-08-28T04:56:44.603Z,999.56
2022-08-28T04:57:43.477Z,999.57
2022-08-28T04:58:43.637Z,999.59
2022-08-28T04:59:43.537Z,999.60
2022-08-28T05:00:43.558Z,999.61
2022-08-28T05:01:43.476Z,999.63
2022-08-28T05:02:43.550Z,999.63
2022-08-28T05:03:43.461Z,999.64
2022-08-28T05:04:43.433Z,999.65
2022-08-28T05:05:43.427Z,999.64
2022-08-28T05:06:43.355Z,999.64
2022-08-28T05:07:43.409Z,999.67
2022-08-28T05:08:43.364Z,999.68
2022-08-28T05:09:43.361Z,999.69
2022-08-28T05:10:43.314Z,999.70
2022-08-28T05:11:43.294Z,999.71
2022-08-28T05:12:43.283Z,999.73
2022-08-28T05:13:43.245Z,999.72
2022-08-28T05:14:43.305Z,999.75
2022-08-28T05:15:43.226Z,999.77
2022-08-28T05:16:43.333Z,999.78
2022-08-28T05:17:43.179Z,999.78
2022-08-28T05:18:43.159Z,999.79
2022-08-28T05:19:43.184Z,999.80
2022-08-28T05:20:43.112Z,999.82
2022-08-28T05:21:43.121Z,999.81
2022-08-28T05:22:43.080Z,999.84
2022-08-28T05:23:43.126Z,999.85
2022-08-28T05:24:43.062Z,999.87
2022-08-28T05:25:43.071Z,999.84
2022-08-28T05:26:43.020Z,999.87
2022-08-28T05:27:43.036Z,999.88
2022-08-28T05:28:42.966Z,999.91
2022-08-28T05:29:42.953Z,999.89
2022-08-28T05:30:42.975Z,999.92
2022-08-28T05:31:42.958Z,999.93
2022-08-28T05:32:42.985Z,999.91
2022-08-28T05:33:42.890Z,999.94
2022-08-28T05:34:42.896Z,999.93
2022-08-28T05:35:42.890Z,999.92
2022-08-28T05:36:42.833Z,999.95
2022-08-28T05:37:42.814Z,999.94
2022-08-28T05:38:42.773Z,999.94
2022-08-28T05:39:42.788Z,999.96
2022-08-28T05:40:42.750Z,999.96
2022-08-28T05:41:42.855Z,999.97
2022-08-28T05:42:42.728Z,999.96
2022-08-28T05:43:42.684Z,999.96
2022-08-28T05:44:42.712Z,999.97
2022-08-28T05:45:42.717Z,999.97
2022-08-28T05:46:42.683Z,999.97
2022-08-28T05:47:42.625Z,999.97
2022-08-28T05:48:42.635Z,999.97
2022-08-28T05:49:42.589Z,999.99
2022-08-28T05:50:47.153Z,999.98
2022-08-28T05:51:43.608Z,1000.00
2022-08-28T05:52:42.527Z,999.98
2022-08-28T05:53:42.558Z,999.99
2022-08-28T05:54:42.506Z,1000.01
2022-08-28T05:55:42.480Z,1000.01
2022-08-28T05:56:42.516Z,1000.05
2022-08-28T05:57:42.531Z,1000.05
2022-08-28T05:58:42.423Z,1000.04
2022-08-28T05:59:42.389Z,1000.06
2022-08-28T06:00:42.382Z,1000.08
2022-08-28T06:01:42.404Z,1000.10
2022-08-28T06:02:42.382Z,1000.10
2022-08-28T06:03:42.398Z,1000.14
2022-08-28T06:04:42.356Z,1000.13
2022-08-28T06:05:42.292Z,1000.14
2022-08-28T06:06:42.220Z,1000.13
2022-08-28T06:07:42.305Z,1000.11
2022-08-28T06:08:58.164Z,1000.14
2022-08-28T06:09:43.241Z,1000.14
2022-08-28T06:10:42.209Z,1000.14
2022-08-28T06:11:44.828Z,1000.14
2022-08-28T06:12:42.225Z,1000.10
2022-08-28T06:13:42.161Z,1000.09
2022-08-28T06:14:42.107Z,1000.11
2022-08-28T06:15:42.165Z,1000.10
2022-08-28T06:16:42.099Z,1000.09
2022-08-28T06:17:42.074Z,1000.09
2022-08-28T06:18:42.086Z,1000.09
2022-08-28T06:19:42.039Z,1000.10
2022-08-28T06:20:41.990Z,1000.08
2022-08-28T06:21:42.016Z,1000.09
2022-08-28T06:22:41.981Z,1000.08
2022-08-28T06:23:41.988Z,1000.09
2022-08-28T06:24:41.986Z,1000.09
2022-08-28T06:25:41.918Z,1000.10
2022-08-28T06:26:41.903Z,1000.09
2022-08-28T06:27:41.889Z,1000.12
2022-08-28T06:28:42.915Z,1000.15
2022-08-28T06:29:41.858Z,1000.14
2022-08-28T06:30:49.026Z,1000.16
2022-08-28T06:31:42.886Z,1000.19
2022-08-28T06:32:41.817Z,1000.19
2022-08-28T06:33:41.868Z,1000.20
2022-08-28T06:34:41.786Z,1000.19
2022-08-28T06:35:41.719Z,1000.19
2022-08-28T06:36:41.719Z,1000.20
2022-08-28T06:37:41.691Z,1000.22
2022-08-28T06:38:41.687Z,1000.24
2022-08-28T06:39:41.719Z,1000.25
2022-08-28T06:40:41.700Z,1000.25
2022-08-28T06:41:41.649Z,1000.26
2022-08-28T06:42:41.609Z,1000.26
2022-08-28T06:43:41.583Z,1000.26
2022-08-28T06:44:41.605Z,1000.28
2022-08-28T06:45:41.581Z,1000.27
2022-08-28T06:46:41.564Z,1000.25
2022-08-28T06:47:41.529Z,1000.28
2022-08-28T06:48:41.511Z,1000.26
2022-08-28T06:49:41.583Z,1000.24
2022-08-28T06:50:41.472Z,1000.27
2022-08-28T06:51:41.447Z,1000.26
2022-08-28T06:52:41.432Z,1000.26
2022-08-28T06:53:41.420Z,1000.25
2022-08-28T06:54:41.420Z,1000.26
2022-08-28T06:55:42.419Z,1000.27
2022-08-28T06:56:41.381Z,1000.26
2022-08-28T06:57:41.363Z,1000.26
2022-08-28T06:58:41.357Z,1000.30
2022-08-28T06:59:41.305Z,1000.29
2022-08-28T07:00:41.300Z,1000.30
2022-08-28T07:01:41.389Z,1000.32
2022-08-28T07:02:41.314Z,1000.33
2022-08-28T07:03:42.674Z,1000.30
2022-08-28T07:04:41.231Z,1000.33
2022-08-28T07:05:41.227Z,1000.32
2022-08-28T07:06:41.094Z,1000.33
2022-08-28T07:07:41.203Z,1000.34
2022-08-28T07:08:41.166Z,1000.34
2022-08-28T07:09:41.126Z,1000.33
2022-08-28T07:10:41.098Z,1000.32
2022-08-28T07:11:41.136Z,1000.34
2022-08-28T07:12:41.113Z,1000.35
2022-08-28T07:13:41.050Z,1000.34
2022-08-28T07:14:41.012Z,1000.38
2022-08-28T07:15:41.931Z,1000.35
2022-08-28T07:16:41.079Z,1000.42
2022-08-28T07:17:40.984Z,1000.36
2022-08-28T07:18:40.954Z,1000.41
2022-08-28T07:19:40.990Z,1000.40
2022-08-28T07:20:40.914Z,1000.42
2022-08-28T07:21:40.964Z,1000.42
2022-08-28T07:22:40.923Z,1000.40
2022-08-28T07:23:40.874Z,1000.39
2022-08-28T07:24:40.875Z,1000.40
2022-08-28T07:25:40.878Z,1000.42
2022-08-28T07:26:40.859Z,1000.40
2022-08-28T07:27:40.813Z,1000.39
2022-08-28T07:28:40.812Z,1000.39
2022-08-28T07:29:40.790Z,1000.42
2022-08-28T07:30:40.799Z,1000.43
2022-08-28T07:31:40.910Z,1000.45
2022-08-28T07:32:40.748Z,1000.48
2022-08-28T07:33:40.707Z,1000.47
2022-08-28T07:34:40.752Z,1000.45
2022-08-28T07:35:40.687Z,1000.45
2022-08-28T07:36:40.681Z,1000.48
2022-08-28T07:37:41.018Z,1000.47
2022-08-28T07:38:40.590Z,1000.48
2022-08-28T07:39:40.616Z,1000.51
2022-08-28T07:40:40.555Z,1000.50
2022-08-28T07:41:40.572Z,1000.53
2022-08-28T07:42:40.566Z,1000.54
2022-08-28T07:43:40.603Z,1000.55
2022-08-28T07:44:40.500Z,1000.57
2022-08-28T07:45:40.520Z,1000.62
2022-08-28T07:46:40.471Z,1000.60
2022-08-28T07:47:40.480Z,1000.61
2022-08-28T07:48:40.444Z,1000.63
2022-08-28T07:49:40.423Z,1000.58
2022-08-28T07:50:41.383Z,1000.64
2022-08-28T07:51:40.401Z,1000.65
2022-08-28T07:52:40.442Z,1000.66
2022-08-28T07:53:40.321Z,1000.67
2022-08-28T07:54:40.314Z,1000.67
2022-08-28T07:55:40.320Z,1000.66
2022-08-28T07:56:40.297Z,1000.67
2022-08-28T07:57:40.254Z,1000.63
2022-08-28T07:58:40.259Z,1000.66
2022-08-28T07:59:40.274Z,1000.66
2022-08-28T08:00:40.210Z,1000.66
2022-08-28T08:01:40.235Z,1000.65
2022-08-28T08:02:40.183Z,1000.65
2022-08-28T08:03:40.267Z,1000.62
2022-08-28T08:04:40.097Z,1000.63
2022-08-28T08:05:40.095Z,1000.61
2022-08-28T08:06:39.999Z,1000.63
2022-08-28T08:07:41.819Z,1000.66
2022-08-28T08:08:40.192Z,1000.67
2022-08-28T08:09:40.068Z,1000.66
2022-08-28T08:10:39.985Z,1000.67
2022-08-28T08:11:39.997Z,1000.66
2022-08-28T08:12:39.999Z,1000.67
2022-08-28T08:13:39.964Z,1000.64
2022-08-28T08:14:39.942Z,1000.68
2022-08-28T08:15:40.023Z,1000.71
2022-08-28T08:16:39.899Z,1000.72
2022-08-28T08:17:39.901Z,1000.72
2022-08-28T08:18:39.874Z,1000.72
2022-08-28T08:19:39.779Z,1000.70
2022-08-28T08:20:39.799Z,1000.74
2022-08-28T08:21:39.796Z,1000.73
2022-08-28T08:22:39.722Z,1000.72
2022-08-28T08:23:39.693Z,1000.77
2022-08-28T08:24:39.792Z,1000.76
2022-08-28T08:25:39.881Z,1000.78
2022-08-28T08:26:39.873Z,1000.78
2022-08-28T08:27:42.908Z,1000.78
2022-08-28T08:28:39.659Z,1000.78
2022-08-28T08:29:39.604Z,1000.78
2022-08-28T08:30:39.550Z,1000.77
2022-08-28T08:31:39.733Z,1000.80
2022-08-28T08:32:39.515Z,1000.80
2022-08-28T08:33:39.587Z,1000.75
2022-08-28T08:34:39.608Z,1000.74
2022-08-28T08:35:39.455Z,1000.78
2022-08-28T08:36:39.480Z,1000.74
2022-08-28T08:37:39.529Z,1000.71
2022-08-28T08:38:39.477Z,1000.75
2022-08-28T08:39:39.387Z,1000.76
2022-08-28T08:40:39.417Z,1000.77
2022-08-28T08:41:39.354Z,1000.76
2022-08-28T08:42:39.317Z,1000.75
2022-08-28T08:43:39.294Z,1000.76
2022-08-28T08:44:39.297Z,1000.80
2022-08-28T08:45:39.289Z,1000.80
2022-08-28T08:46:39.316Z,1000.79
2022-08-28T08:47:39.194Z,1000.78
2022-08-28T08:48:39.196Z,1000.81
2022-08-28T08:49:39.329Z,1000.80
2022-08-28T08:50:39.196Z,1000.79
2022-08-28T08:51:39.154Z,1000.80
2022-08-28T08:52:39.129Z,1000.78
2022-08-28T08:53:39.307Z,1000.78
2022-08-28T08:54:39.096Z,1000.77
2022-08-28T08:55:39.199Z,1000.74
2022-08-28T08:56:39.050Z,1000.75
2022-08-28T08:57:39.126Z,1000.73
2022-08-28T08:58:39.025Z,1000.76
2022-08-28T08:59:39.082Z,1000.76
2022-08-28T09:00:38.993Z,1000.77
2022-08-28T09:01:39.151Z,1000.79
2022-08-28T09:02:38.980Z,1000.78
2022-08-28T09:03:38.971Z,1000.80
2022-08-28T09:04:40.016Z,1000.77
2022-08-28T09:05:38.889Z,1000.77
2022-08-28T09:06:38.899Z,1000.79
2022-08-28T09:07:38.983Z,1000.80
2022-08-28T09:08:38.848Z,1000.80
2022-08-28T09:09:38.934Z,1000.77
2022-08-28T09:10:38.800Z,1000.76
2022-08-28T09:11:38.907Z,1000.79
2022-08-28T09:12:38.786Z,1000.81
2022-08-28T09:13:38.840Z,1000.80
2022-08-28T09:14:38.788Z,1000.76
2022-08-28T09:15:38.834Z,1000.69
2022-08-28T09:16:38.710Z,1000.73
2022-08-28T09:17:38.832Z,1000.71
2022-08-28T09:18:38.666Z,1000.73
2022-08-28T09:19:38.728Z,1000.74
2022-08-28T09:20:38.612Z,1000.78
2022-08-28T09:21:38.671Z,1000.76
2022-08-28T09:22:38.610Z,1000.73
2022-08-28T09:23:38.647Z,1000.75
2022-08-28T09:24:38.548Z,1000.79
2022-08-28T09:25:38.664Z,1000.76
2022-08-28T09:26:41.118Z,1000.77
2022-08-28T09:27:39.473Z,1000.77
2022-08-28T09:28:38.469Z,1000.80
2022-08-28T09:29:38.526Z,1000.80
2022-08-28T09:30:38.449Z,1000.79
2022-08-28T09:31:38.486Z,1000.78
2022-08-28T09:32:38.433Z,1000.80
2022-08-28T09:33:38.499Z,1000.75
2022-08-28T09:34:39.208Z,1000.74
2022-08-28T09:35:39.265Z,1000.76
2022-08-28T09:36:38.325Z,1000.76
2022-08-28T09:37:39.212Z,1000.75
2022-08-28T09:38:38.301Z,1000.80
2022-08-28T09:39:38.344Z,1000.81
2022-08-28T09:40:38.310Z,1000.80
2022-08-28T09:41:38.326Z,1000.82
2022-08-28T09:42:38.213Z,1000.81
2022-08-28T09:43:38.364Z,1000.78
2022-08-28T09:44:38.164Z,1000.80
2022-08-28T09:45:38.174Z,1000.83
2022-08-28T09:46:38.182Z,1000.84
2022-08-28T09:47:38.685Z,1000.79
2022-08-28T09:48:39.163Z,1000.82
2022-08-28T09:49:38.174Z,1000.80
2022-08-28T09:50:38.073Z,1000.83
2022-08-28T09:51:38.108Z,1000.78
2022-08-28T09:52:38.025Z,1000.84
2022-08-28T09:53:38.138Z,1000.80
2022-08-28T09:54:38.024Z,1000.79
2022-08-28T09:55:38.188Z,1000.80
2022-08-28T09:56:37.967Z,1000.79
2022-08-28T09:57:38.020Z,1000.78
2022-08-28T09:58:38.020Z,1000.79
2022-08-28T09:59:38.072Z,1000.81
2022-08-28T10:00:37.889Z,1000.80
2022-08-28T10:01:37.967Z,1000.76
2022-08-28T10:02:37.849Z,1000.77
2022-08-28T10:03:37.913Z,1000.80
2022-08-28T10:04:37.941Z,1000.77
2022-08-28T10:05:38.727Z,1000.81
2022-08-28T10:06:37.860Z,1000.77
2022-08-28T10:07:38.812Z,1000.79
2022-08-28T10:08:37.715Z,1000.80
2022-08-28T10:09:37.841Z,1000.78
2022-08-28T10:10:37.702Z,1000.80
2022-08-28T10:11:37.766Z,1000.81
2022-08-28T10:12:37.629Z,1000.78
2022-08-28T10:13:37.737Z,1000.83
2022-08-28T10:14:37.624Z,1000.80
2022-08-28T10:15:42.473Z,1000.80
2022-08-28T10:16:38.551Z,1000.80
2022-08-28T10:17:38.107Z,1000.79
2022-08-28T10:18:37.558Z,1000.81
2022-08-28T10:19:37.597Z,1000.80
2022-08-28T10:20:37.544Z,1000.78
2022-08-28T10:21:37.564Z,1000.81
2022-08-28T10:22:37.459Z,1000.84
2022-08-28T10:23:37.541Z,1000.82
2022-08-28T10:24:37.441Z,1000.77
2022-08-28T10:25:37.555Z,1000.84
2022-08-28T10:26:37.389Z,1000.83
2022-08-28T10:27:38.307Z,1000.80
2022-08-28T10:28:37.343Z,1000.82
2022-08-28T10:29:37.429Z,1000.79
2022-08-28T10:30:37.378Z,1000.74
2022-08-28T10:31:37.380Z,1000.76
2022-08-28T10:32:37.280Z,1000.75
2022-08-28T10:33:37.382Z,1000.74
2022-08-28T10:34:37.230Z,1000.72
2022-08-28T10:35:37.281Z,1000.68
2022-08-28T10:36:37.220Z,1000.69
2022-08-28T10:37:37.267Z,1000.67
2022-08-28T10:38:37.164Z,1000.68
2022-08-28T10:39:37.235Z,1000.69
2022-08-28T10:40:37.159Z,1000.69
2022-08-28T10:41:37.231Z,1000.69
2022-08-28T10:42:37.078Z,1000.68
2022-08-28T10:43:37.140Z,1000.67
2022-08-28T10:44:37.041Z,1000.65
2022-08-28T10:45:37.099Z,1000.65
2022-08-28T10:46:37.093Z,1000.67
2022-08-28T10:47:37.099Z,1000.62
2022-08-28T10:48:37.141Z,1000.67
2022-08-28T10:49:37.806Z,1000.63
2022-08-28T10:50:37.022Z,1000.61
2022-08-28T10:51:40.530Z,1000.64
2022-08-28T10:52:37.966Z,1000.62
2022-08-28T10:53:36.945Z,1000.62
2022-08-28T10:54:36.865Z,1000.60
2022-08-28T10:55:36.914Z,1000.58
2022-08-28T10:56:36.810Z,1000.53
2022-08-28T10:57:39.685Z,1000.57
2022-08-28T10:58:36.880Z,1000.58
2022-08-28T10:59:42.050Z,1000.55
2022-08-28T11:00:37.736Z,1000.55
2022-08-28T11:01:36.934Z,1000.55
2022-08-28T11:02:36.786Z,1000.59
2022-08-28T11:03:37.241Z,1000.57
2022-08-28T11:04:36.670Z,1000.59
2022-08-28T11:05:36.737Z,1000.58
2022-08-28T11:06:36.616Z,1000.58
2022-08-28T11:07:36.776Z,1000.57
2022-08-28T11:08:36.627Z,1000.56
2022-08-28T11:09:36.679Z,1000.53
2022-08-28T11:10:36.542Z,1000.52
2022-08-28T11:11:37.324Z,1000.49
2022-08-28T11:12:36.494Z,1000.51
2022-08-28T11:13:36.625Z,1000.52
2022-08-28T11:14:47.959Z,1000.52
2022-08-28T11:15:37.748Z,1000.54
2022-08-28T11:16:36.672Z,1000.55
2022-08-28T11:17:36.555Z,1000.58
2022-08-28T11:18:36.419Z,1000.61
2022-08-28T11:19:38.684Z,1000.62
2022-08-28T11:20:36.397Z,1000.61
2022-08-28T11:21:36.456Z,1000.60
2022-08-28T11:22:36.340Z,1000.56
2022-08-28T11:23:37.254Z,1000.55
2022-08-28T11:24:36.296Z,1000.56
2022-08-28T11:25:36.439Z,1000.55
2022-08-28T11:26:36.246Z,1000.52
2022-08-28T11:27:36.541Z,1000.48
2022-08-28T11:28:36.193Z,1000.51
2022-08-28T11:29:36.346Z,1000.51
2022-08-28T11:30:36.227Z,1000.53
2022-08-28T11:31:36.312Z,1000.54
2022-08-28T11:32:36.131Z,1000.52
2022-08-28T11:33:36.192Z,1000.48
2022-08-28T11:34:36.133Z,1000.48
2022-08-28T11:35:36.202Z,1000.48
2022-08-28T11:36:36.065Z,1000.52
2022-08-28T11:37:36.150Z,1000.51
2022-08-28T11:38:36.025Z,1000.50
2022-08-28T11:39:36.132Z,1000.47
2022-08-28T11:40:36.059Z,1000.48
2022-08-28T11:41:36.080Z,1000.49
2022-08-28T11:42:35.939Z,1000.49
2022-08-28T11:43:36.001Z,1000.48
2022-08-28T11:44:35.944Z,1000.48
2022-08-28T11:45:35.981Z,1000.45
2022-08-28T11:46:35.917Z,1000.50
2022-08-28T11:47:36.008Z,1000.50
2022-08-28T11:48:35.837Z,1000.48
2022-08-28T11:49:36.841Z,1000.48
2022-08-28T11:50:35.810Z,1000.48
2022-08-28T11:51:35.888Z,1000.49
2022-08-28T11:52:35.764Z,1000.45
2022-08-28T11:53:35.828Z,1000.50
2022-08-28T11:54:35.713Z,1000.49
2022-08-28T11:55:35.829Z,1000.47
2022-08-28T11:56:35.758Z,1000.48
2022-08-28T11:57:35.774Z,1000.51
2022-08-28T11:58:35.648Z,1000.50
2022-08-28T11:59:35.795Z,1000.45
2022-08-28T12:00:35.653Z,1000.42
2022-08-28T12:01:36.350Z,1000.41
2022-08-28T12:02:35.776Z,1000.41
2022-08-28T12:03:35.627Z,1000.39
2022-08-28T12:04:35.565Z,1000.40
2022-08-28T12:05:35.609Z,1000.44
2022-08-28T12:06:35.504Z,1000.40
2022-08-28T12:07:35.585Z,1000.43
2022-08-28T12:08:35.519Z,1000.42
2022-08-28T12:09:35.518Z,1000.43
2022-08-28T12:10:35.412Z,1000.42
2022-08-28T12:11:35.497Z,1000.41
2022-08-28T12:12:35.382Z,1000.41
2022-08-28T12:13:35.452Z,1000.39
2022-08-28T12:14:35.351Z,1000.37
2022-08-28T12:15:35.498Z,1000.39
2022-08-28T12:16:35.338Z,1000.41